Terminal Aerodrome Forecast
Issued by NWS

Current Version | Previous Version | Graphics & Text | Print | Product List | Glossary On
Versions: 1 2 3 4 5 6 7 8 9 10 11 12 13 14 15 16 17 18 19 20 21 22 23
000
FTUS41 KRLX 181100
TAFCKB
TAF
KCKB 181122Z 1812/1912 28010KT P6SM OVC022
     FM181700 26005KT P6SM BKN070
     FM190700 26003KT P6SM BKN022=

USA.gov is the U.S. government's official web portal to all federal, state and local government web resources and services.